Time;durP1;ratioP1;P1;durP2;ratioP2;P2;SDS_P1;SDS_P2;PMS_P1;PMS_P2;Temp;Humidity;BMP_temperature;BMP_pressure;BME280_temperature;BME280_humidity;BME280_pressure;Samples;Min_cycle;Max_cycle;Signal;HPM_P1;HPM_P2
2023/05/14 00:01:45;;;;;;;9.70;8.23;;;;;;;;;;5054036;28;20211;-69
2023/05/14 00:04:49;;;;;;;12.53;9.07;;;;;;;;;;5054180;28;20184;-69
2023/05/14 00:07:53;;;;;;;12.83;9.27;;;;;;;;;;5053883;28;20184;-69
2023/05/14 00:10:57;;;;;;;12.93;8.37;;;;;;;;;;5041911;28;20168;-69
2023/05/14 00:14:02;;;;;;;11.20;9.47;;;;;;;;;;5053715;28;20196;-69
2023/05/14 00:17:06;;;;;;;10.60;8.57;;;;;;;;;;5054068;28;20208;-68
2023/05/14 00:20:11;;;;;;;12.47;8.57;;;;;;;;;;5041799;28;20325;-68
2023/05/14 00:23:15;;;;;;;11.13;9.00;;;;;;;;;;5053409;28;20208;-69
2023/05/14 00:26:20;;;;;;;9.63;8.27;;;;;;;;;;5030154;28;20176;-69
2023/05/14 00:29:25;;;;;;;10.73;8.67;;;;;;;;;;5053599;28;20192;-69
2023/05/14 00:32:29;;;;;;;13.07;8.90;;;;;;;;;;5053151;28;20563;-68
2023/05/14 00:35:34;;;;;;;11.33;8.90;;;;;;;;;;5040844;28;20172;-68
2023/05/14 00:38:38;;;;;;;10.17;8.43;;;;;;;;;;5041005;28;20184;-69
2023/05/14 00:41:43;;;;;;;13.87;9.37;;;;;;;;;;5053300;28;20563;-68
2023/05/14 00:44:47;;;;;;;10.87;8.67;;;;;;;;;;5041360;28;20180;-68
2023/05/14 00:47:52;;;;;;;15.67;8.47;;;;;;;;;;5053099;28;20172;-68
2023/05/14 00:50:56;;;;;;;12.13;8.67;;;;;;;;;;5041283;28;20176;-68
2023/05/14 00:54:01;;;;;;;11.20;8.43;;;;;;;;;;5053033;28;20223;-68
2023/05/14 00:57:05;;;;;;;13.47;8.43;;;;;;;;;;5029703;28;20627;-68
2023/05/14 01:00:09;;;;;;;10.50;8.47;;;;;;;;;;5040971;28;20635;-69
2023/05/14 01:03:13;;;;;;;10.27;8.47;;;;;;;;;;5053242;28;20211;-68
2023/05/14 01:06:45;;;;;;;11.17;8.53;;;;;;;;;;5040971;28;20176;-68
2023/05/14 01:10:08;;;;;;;13.40;9.13;;;;;;;;;;5040762;28;20214;-68
2023/05/14 01:13:26;;;;;;;13.73;8.67;;;;;;;;;;5029145;28;20294;-68
2023/05/14 01:16:32;;;;;;;13.03;8.80;;;;;;;;;;5029469;28;20187;-68
2023/05/14 01:19:42;;;;;;;9.90;8.27;;;;;;;;;;5053362;28;20193;-69
2023/05/14 01:22:46;;;;;;;12.53;8.67;;;;;;;;;;5040746;28;20212;-68
2023/05/14 01:25:50;;;;;;;11.77;8.73;;;;;;;;;;5040515;28;20567;-69
2023/05/14 01:28:58;;;;;;;11.00;8.47;;;;;;;;;;5052685;28;20199;-69
2023/05/14 01:32:06;;;;;;;10.03;8.07;;;;;;;;;;5040436;28;20227;-69
2023/05/14 01:35:10;;;;;;;9.17;8.00;;;;;;;;;;5040763;28;20188;-68
2023/05/14 01:38:17;;;;;;;10.73;8.63;;;;;;;;;;5040415;28;20520;-68
2023/05/14 01:41:24;;;;;;;14.23;9.00;;;;;;;;;;5052482;28;20196;-68
2023/05/14 01:44:29;;;;;;;12.40;9.20;;;;;;;;;;5029038;28;20203;-68
2023/05/14 01:47:33;;;;;;;9.93;8.20;;;;;;;;;;5044098;28;20236;-68
2023/05/14 01:50:38;;;;;;;10.47;8.17;;;;;;;;;;5056474;28;20185;-68
2023/05/14 01:53:41;;;;;;;9.73;8.20;;;;;;;;;;5044157;28;20220;-68
2023/05/14 01:56:46;;;;;;;14.03;9.00;;;;;;;;;;5044221;28;20176;-68
2023/05/14 01:59:50;;;;;;;10.17;8.17;;;;;;;;;;5044084;28;20207;-69
2023/05/14 02:02:54;;;;;;;14.13;8.33;;;;;;;;;;5043888;28;20216;-68
2023/05/14 02:06:00;;;;;;;10.87;9.13;;;;;;;;;;5056326;28;20209;-68
2023/05/14 02:09:05;;;;;;;10.20;8.83;;;;;;;;;;5043770;28;20208;-69
2023/05/14 02:12:10;;;;;;;13.23;9.47;;;;;;;;;;5043722;28;20224;-69
2023/05/14 02:15:14;;;;;;;12.20;9.60;;;;;;;;;;5044163;28;20176;-68
2023/05/14 02:18:18;;;;;;;11.63;9.53;;;;;;;;;;5043850;28;20176;-68
2023/05/14 02:21:23;;;;;;;12.17;9.70;;;;;;;;;;5056178;28;20540;-68
2023/05/14 02:24:27;;;;;;;11.60;9.43;;;;;;;;;;5043425;28;20192;-69
2023/05/14 02:27:31;;;;;;;12.77;10.10;;;;;;;;;;5055643;28;20180;-69
2023/05/14 02:30:35;;;;;;;13.10;9.70;;;;;;;;;;5043364;28;20183;-69
2023/05/14 02:33:39;;;;;;;13.33;10.17;;;;;;;;;;5055721;28;20204;-69
2023/05/14 02:36:43;;;;;;;13.10;9.87;;;;;;;;;;5043183;28;20209;-69
2023/05/14 02:39:48;;;;;;;13.87;10.80;;;;;;;;;;5032039;28;20176;-69
2023/05/14 02:42:53;;;;;;;12.27;10.50;;;;;;;;;;5043273;28;20218;-68
2023/05/14 02:45:57;;;;;;;11.60;9.77;;;;;;;;;;5055308;28;20542;-69
2023/05/14 02:49:02;;;;;;;11.93;10.00;;;;;;;;;;5043257;28;20654;-69
2023/05/14 02:52:06;;;;;;;13.40;10.20;;;;;;;;;;5055037;28;20223;-69
2023/05/14 02:55:10;;;;;;;12.67;10.40;;;;;;;;;;5032057;28;20183;-69
2023/05/14 02:58:14;;;;;;;12.50;9.70;;;;;;;;;;5019421;28;20179;-69
2023/05/14 03:01:19;;;;;;;11.70;9.70;;;;;;;;;;5043038;28;20187;-69
2023/05/14 03:04:22;;;;;;;10.00;8.20;;;;;;;;;;5020391;28;20554;-69
2023/05/14 03:07:26;;;;;;;10.33;8.43;;;;;;;;;;5055180;28;20183;-69
2023/05/14 03:10:31;;;;;;;11.20;8.77;;;;;;;;;;5042456;28;20203;-70
2023/05/14 03:13:35;;;;;;;10.73;8.97;;;;;;;;;;5031115;28;20199;-69
2023/05/14 03:16:41;;;;;;;12.63;9.10;;;;;;;;;;5042568;28;20188;-69
2023/05/14 03:19:45;;;;;;;11.23;8.37;;;;;;;;;;5055028;28;20183;-69
2023/05/14 03:22:49;;;;;;;11.87;9.57;;;;;;;;;;5054661;28;20220;-69
2023/05/14 03:25:53;;;;;;;13.60;9.17;;;;;;;;;;5042162;28;20657;-69
2023/05/14 03:28:57;;;;;;;10.83;8.73;;;;;;;;;;5054567;28;20176;-69
2023/05/14 03:32:02;;;;;;;13.20;8.90;;;;;;;;;;5054679;28;20227;-69
2023/05/14 03:35:06;;;;;;;10.17;8.03;;;;;;;;;;5041910;28;20195;-69
2023/05/14 03:38:10;;;;;;;10.23;8.93;;;;;;;;;;5054132;28;20200;-69
2023/05/14 03:41:14;;;;;;;9.37;7.93;;;;;;;;;;5042023;28;20200;-69
2023/05/14 03:44:19;;;;;;;7.80;6.77;;;;;;;;;;5042050;28;20654;-69
2023/05/14 03:47:24;;;;;;;9.43;7.93;;;;;;;;;;5042050;28;20516;-69
2023/05/14 03:50:29;;;;;;;10.07;8.07;;;;;;;;;;5042093;28;20172;-69
2023/05/14 03:53:32;;;;;;;11.00;7.67;;;;;;;;;;5041662;28;20236;-69
2023/05/14 03:56:36;;;;;;;12.43;7.83;;;;;;;;;;5053816;28;20208;-69
2023/05/14 03:59:41;;;;;;;8.60;7.53;;;;;;;;;;5041734;28;20185;-69
2023/05/14 04:02:45;;;;;;;11.27;7.63;;;;;;;;;;5053641;28;20216;-69
2023/05/14 04:05:49;;;;;;;8.57;7.07;;;;;;;;;;5041654;28;20665;-69
2023/05/14 04:08:54;;;;;;;10.63;7.27;;;;;;;;;;5030201;28;20203;-69
2023/05/14 04:11:57;;;;;;;9.87;8.17;;;;;;;;;;5030162;28;20211;-69
2023/05/14 04:15:02;;;;;;;9.97;7.53;;;;;;;;;;5053757;28;20180;-69
2023/05/14 04:18:06;;;;;;;11.30;8.67;;;;;;;;;;5053936;28;20512;-69
2023/05/14 04:21:11;;;;;;;10.83;8.30;;;;;;;;;;5053450;28;20203;-69
2023/05/14 04:24:16;;;;;;;11.23;8.60;;;;;;;;;;5053280;28;20203;-69
2023/05/14 04:27:20;;;;;;;12.77;8.30;;;;;;;;;;5053233;28;20203;-69
2023/05/14 04:30:25;;;;;;;11.83;8.47;;;;;;;;;;5053733;28;20196;-68
2023/05/14 04:33:29;;;;;;;8.07;6.90;;;;;;;;;;5052997;28;20235;-70
2023/05/14 04:36:33;;;;;;;8.43;7.53;;;;;;;;;;5053225;28;20196;-69
2023/05/14 04:39:38;;;;;;;9.13;7.10;;;;;;;;;;5041206;28;20176;-70
2023/05/14 04:42:42;;;;;;;9.27;7.00;;;;;;;;;;5029526;28;20216;-70
2023/05/14 04:45:46;;;;;;;9.17;7.20;;;;;;;;;;5053277;28;20195;-70
2023/05/14 04:48:51;;;;;;;9.40;6.90;;;;;;;;;;5053352;28;20200;-69
2023/05/14 04:51:54;;;;;;;8.10;6.60;;;;;;;;;;5052855;28;20216;-69
2023/05/14 04:54:58;;;;;;;11.10;6.47;;;;;;;;;;5041200;28;20212;-70
2023/05/14 04:58:03;;;;;;;10.43;6.07;;;;;;;;;;5040750;28;20188;-70
2023/05/14 05:01:08;;;;;;;11.87;7.03;;;;;;;;;;5052855;28;20191;-69
2023/05/14 05:04:11;;;;;;;9.87;6.83;;;;;;;;;;5041075;28;20255;-69
2023/05/14 05:07:16;;;;;;;6.83;5.97;;;;;;;;;;5053027;28;20176;-69
2023/05/14 05:10:20;;;;;;;7.50;6.10;;;;;;;;;;5041379;28;20200;-68
2023/05/14 05:13:24;;;;;;;9.17;6.07;;;;;;;;;;5040405;28;20227;-69
2023/05/14 05:16:28;;;;;;;8.07;6.43;;;;;;;;;;5052984;28;20176;-69
2023/05/14 05:19:32;;;;;;;7.47;5.90;;;;;;;;;;5040508;28;20180;-69
2023/05/14 05:22:36;;;;;;;6.77;5.87;;;;;;;;;;5056572;28;20219;-69
2023/05/14 05:25:40;;;;;;;9.40;6.43;;;;;;;;;;5057466;28;20176;-68
2023/05/14 05:28:44;;;;;;;7.27;6.10;;;;;;;;;;5044702;28;20176;-69
2023/05/14 05:31:48;;;;;;;10.43;8.13;;;;;;;;;;5044752;28;20219;-68
2023/05/14 05:34:53;;;;;;;8.67;6.53;;;;;;;;;;5044469;28;20215;-69
2023/05/14 05:37:56;;;;;;;13.50;6.57;;;;;;;;;;5044443;28;20180;-69
2023/05/14 05:41:01;;;;;;;5.97;5.30;;;;;;;;;;5056909;28;20180;-68
2023/05/14 05:44:05;;;;;;;7.77;6.70;;;;;;;;;;5056724;28;20181;-69
2023/05/14 05:47:09;;;;;;;6.70;5.83;;;;;;;;;;5056796;28;20631;-69
2023/05/14 05:50:13;;;;;;;7.90;5.97;;;;;;;;;;5044330;28;20192;-69
2023/05/14 05:53:17;;;;;;;8.00;5.93;;;;;;;;;;5056548;28;20216;-69
2023/05/14 05:56:22;;;;;;;6.53;5.10;;;;;;;;;;5082746;22;20688;-74
2023/05/14 05:59:26;;;;;;;6.67;5.30;;;;;;;;;;5076165;28;20171;-73
2023/05/14 06:02:30;;;;;;;7.23;5.57;;;;;;;;;;5052631;28;20219;-73
2023/05/14 06:05:34;;;;;;;6.73;5.10;;;;;;;;;;5056369;28;20180;-73
2023/05/14 06:08:38;;;;;;;5.80;5.20;;;;;;;;;;5043848;28;20184;-74
2023/05/14 06:11:42;;;;;;;5.67;5.03;;;;;;;;;;5056048;28;20212;-74
2023/05/14 06:14:47;;;;;;;6.20;5.07;;;;;;;;;;5056449;28;20212;-74
2023/05/14 06:17:51;;;;;;;9.50;5.43;;;;;;;;;;5044191;28;20520;-74
2023/05/14 06:20:56;;;;;;;5.23;4.73;;;;;;;;;;5056474;28;20176;-74
2023/05/14 06:23:59;;;;;;;9.30;5.13;;;;;;;;;;5046453;28;20172;-73
2023/05/14 06:27:04;;;;;;;6.00;5.20;;;;;;;;;;5044756;28;20176;-74
2023/05/14 06:30:09;;;;;;;7.03;4.87;;;;;;;;;;5044179;28;20184;-74
2023/05/14 06:33:13;;;;;;;5.57;4.90;;;;;;;;;;5042639;28;20215;-74
2023/05/14 06:36:17;;;;;;;9.37;4.97;;;;;;;;;;5056097;28;20187;-73
2023/05/14 06:39:22;;;;;;;8.33;5.23;;;;;;;;;;5043839;28;20195;-74
2023/05/14 06:42:26;;;;;;;7.43;5.30;;;;;;;;;;5055634;28;20710;-73
2023/05/14 06:45:31;;;;;;;6.83;4.70;;;;;;;;;;5055835;28;20172;-74
2023/05/14 06:48:35;;;;;;;5.10;4.60;;;;;;;;;;5056214;28;20176;-73
2023/05/14 06:51:39;;;;;;;5.50;4.53;;;;;;;;;;5043228;28;20220;-73
2023/05/14 06:54:43;;;;;;;6.97;5.70;;;;;;;;;;5055512;28;20219;-73
2023/05/14 06:57:47;;;;;;;6.50;5.80;;;;;;;;;;5043674;28;20168;-73
2023/05/14 07:00:51;;;;;;;7.93;6.00;;;;;;;;;;5055944;28;20175;-74
2023/05/14 07:03:56;;;;;;;7.43;5.60;;;;;;;;;;5055550;28;20623;-74
2023/05/14 07:07:00;;;;;;;6.77;5.90;;;;;;;;;;5055285;28;20184;-74
2023/05/14 07:10:05;;;;;;;7.87;6.57;;;;;;;;;;5043414;28;20180;-74
2023/05/14 07:13:09;;;;;;;6.60;5.90;;;;;;;;;;5042843;28;20220;-74
2023/05/14 07:16:13;;;;;;;8.17;6.20;;;;;;;;;;5055128;28;20196;-74
2023/05/14 07:19:18;;;;;;;7.00;6.30;;;;;;;;;;5042824;28;20188;-74
2023/05/14 07:22:22;;;;;;;7.30;6.37;;;;;;;;;;5055999;28;20208;-73
2023/05/14 07:25:26;;;;;;;9.07;6.73;;;;;;;;;;5055514;28;20191;-73
2023/05/14 07:28:34;;;;;;;8.80;7.03;;;;;;;;;;5055359;28;20532;-73
2023/05/14 07:31:39;;;;;;;9.73;7.83;;;;;;;;;;5020206;28;20686;-73
2023/05/14 07:34:43;;;;;;;7.97;7.17;;;;;;;;;;5032404;28;20215;-73
2023/05/14 07:37:48;;;;;;;7.63;6.83;;;;;;;;;;5043652;28;20176;-74
2023/05/14 07:40:52;;;;;;;9.50;7.87;;;;;;;;;;5043651;28;20643;-73
2023/05/14 07:43:56;;;;;;;8.77;7.70;;;;;;;;;;5054731;28;20539;-73
2023/05/14 07:47:00;;;;;;;8.87;7.40;;;;;;;;;;5042986;28;20649;-72
2023/05/14 07:50:05;;;;;;;9.70;8.70;;;;;;;;;;5055265;28;20196;-72
2023/05/14 07:53:10;;;;;;;9.57;7.00;;;;;;;;;;5055865;28;20212;-73
2023/05/14 07:56:14;;;;;;;8.83;7.93;;;;;;;;;;5043070;28;20535;-73
2023/05/14 07:59:18;;;;;;;7.33;6.50;;;;;;;;;;5055252;28;20176;-72
2023/05/14 08:02:22;;;;;;;7.97;7.10;;;;;;;;;;5042344;28;20215;-72
2023/05/14 08:05:26;;;;;;;7.27;5.57;;;;;;;;;;5042264;28;20523;-73
2023/05/14 08:08:30;;;;;;;6.63;5.47;;;;;;;;;;5054441;28;20176;-74
2023/05/14 08:11:34;;;;;;;6.57;5.47;;;;;;;;;;5054426;28;20212;-74
2023/05/14 08:14:38;;;;;;;7.10;5.33;;;;;;;;;;5030749;28;20208;-73
2023/05/14 08:17:42;;;;;;;6.03;5.10;;;;;;;;;;5042148;28;20176;-73
2023/05/14 08:20:47;;;;;;;6.30;5.70;;;;;;;;;;5041662;28;20184;-73
2023/05/14 08:23:51;;;;;;;7.57;5.20;;;;;;;;;;5054391;28;20516;-72
2023/05/14 08:26:55;;;;;;;11.97;9.93;;;;;;;;;;5030440;28;20180;-72
2023/05/14 08:29:59;;;;;;;4.70;4.20;;;;;;;;;;5041770;28;20540;-73
2023/05/14 08:33:03;;;;;;;5.23;4.53;;;;;;;;;;5053854;28;20690;-73
2023/05/14 08:36:08;;;;;;;5.00;3.70;;;;;;;;;;5053771;28;20212;-73
2023/05/14 08:39:12;;;;;;;4.53;4.10;;;;;;;;;;5041498;28;20184;-73
2023/05/14 08:42:19;;;;;;;4.60;3.90;;;;;;;;;;5053566;28;20223;-73
2023/05/14 08:45:32;;;;;;;5.07;3.63;;;;;;;;;;5054072;28;20172;-73
2023/05/14 08:48:41;;;;;;;5.50;3.60;;;;;;;;;;5054001;28;20532;-73
2023/05/14 08:51:47;;;;;;;4.33;3.67;;;;;;;;;;5041224;28;20564;-73
2023/05/14 08:54:53;;;;;;;6.63;4.20;;;;;;;;;;5052817;28;20524;-73
2023/05/14 08:57:57;;;;;;;3.90;3.50;;;;;;;;;;5053589;28;20184;-74
2023/05/14 09:01:01;;;;;;;5.43;3.77;;;;;;;;;;5053255;28;20508;-73
2023/05/14 09:04:07;;;;;;;3.23;2.93;;;;;;;;;;5053755;28;20176;-73
2023/05/14 09:07:12;;;;;;;3.73;3.40;;;;;;;;;;5041308;28;20180;-73
2023/05/14 09:10:16;;;;;;;5.20;3.53;;;;;;;;;;5053894;28;20516;-73
2023/05/14 09:13:20;;;;;;;3.93;3.40;;;;;;;;;;5040948;28;20219;-74
2023/05/14 09:16:25;;;;;;;4.10;3.30;;;;;;;;;;5053887;28;20204;-74
2023/05/14 09:19:30;;;;;;;4.90;3.33;;;;;;;;;;5041450;28;20180;-73
2023/05/14 09:22:34;;;;;;;6.47;3.07;;;;;;;;;;5053203;28;20220;-73
2023/05/14 09:25:39;;;;;;;4.03;3.13;;;;;;;;;;5041718;28;20176;-74
2023/05/14 09:28:43;;;;;;;3.97;2.97;;;;;;;;;;5053477;28;20545;-73
2023/05/14 09:31:50;;;;;;;3.20;2.73;;;;;;;;;;5040885;28;20224;-73
2023/05/14 09:34:55;;;;;;;3.27;2.93;;;;;;;;;;5041002;28;20224;-74
2023/05/14 09:37:59;;;;;;;3.20;2.70;;;;;;;;;;5040770;28;20180;-74
2023/05/14 09:41:03;;;;;;;3.80;2.70;;;;;;;;;;5053363;28;20180;-74
2023/05/14 09:44:07;;;;;;;3.00;2.70;;;;;;;;;;5041065;28;20627;-74
2023/05/14 09:47:14;;;;;;;3.30;3.00;;;;;;;;;;5053610;28;20176;-74
2023/05/14 09:50:18;;;;;;;3.80;2.70;;;;;;;;;;5053252;28;20180;-73
2023/05/14 09:53:22;;;;;;;4.93;3.10;;;;;;;;;;5029433;28;20215;-73
2023/05/14 09:56:27;;;;;;;3.63;3.03;;;;;;;;;;5040538;28;20690;-74
2023/05/14 09:59:31;;;;;;;2.73;2.47;;;;;;;;;;5053241;28;20180;-74
2023/05/14 10:02:37;;;;;;;2.83;2.47;;;;;;;;;;5053391;28;20208;-74
2023/05/14 10:05:41;;;;;;;3.03;2.73;;;;;;;;;;5053188;28;20623;-74
2023/05/14 10:08:47;;;;;;;2.83;2.53;;;;;;;;;;5056395;28;20176;-73
2023/05/14 10:11:57;;;;;;;2.90;2.60;;;;;;;;;;5044656;28;20216;-73
2023/05/14 10:15:05;;;;;;;4.37;2.70;;;;;;;;;;5056664;28;20208;-73
2023/05/14 10:18:16;;;;;;;3.37;2.73;;;;;;;;;;5056394;28;20203;-73
2023/05/14 10:21:21;;;;;;;3.50;2.67;;;;;;;;;;5056379;28;20185;-73
2023/05/14 10:24:26;;;;;;;2.87;2.43;;;;;;;;;;5044089;28;20192;-73
2023/05/14 10:27:30;;;;;;;2.13;1.93;;;;;;;;;;5056353;28;20639;-73
2023/05/14 10:30:34;;;;;;;2.40;2.20;;;;;;;;;;5056488;28;20176;-73
2023/05/14 10:33:46;;;;;;;3.43;2.20;;;;;;;;;;5056537;28;20184;-73
2023/05/14 10:36:51;;;;;;;2.77;2.40;;;;;;;;;;5056406;28;20177;-73
2023/05/14 10:39:55;;;;;;;2.77;2.13;;;;;;;;;;5056187;28;20196;-74
2023/05/14 10:43:00;;;;;;;2.50;2.17;;;;;;;;;;5032395;28;20575;-73
2023/05/14 10:46:05;;;;;;;3.13;2.43;;;;;;;;;;5043679;28;20196;-74
2023/05/14 10:49:10;;;;;;;2.70;2.30;;;;;;;;;;5056365;28;20177;-74
2023/05/14 10:52:17;;;;;;;2.80;2.50;;;;;;;;;;5043586;28;20219;-73
2023/05/14 10:55:21;;;;;;;2.90;2.23;;;;;;;;;;5055836;28;20224;-74
2023/05/14 10:58:25;;;;;;;2.77;2.17;;;;;;;;;;5055416;28;20176;-73
2023/05/14 11:01:30;;;;;;;2.27;2.07;;;;;;;;;;5043541;28;20219;-74
2023/05/14 11:04:34;;;;;;;2.47;2.13;;;;;;;;;;5043254;28;20177;-74
2023/05/14 11:07:57;;;;;;;3.77;2.17;;;;;;;;;;5055369;28;20176;-73
2023/05/14 11:11:01;;;;;;;2.30;2.10;;;;;;;;;;5055474;28;20627;-74
2023/05/14 11:14:05;;;;;;;2.37;2.17;;;;;;;;;;5055447;28;20172;-74
2023/05/14 11:17:10;;;;;;;3.30;2.20;;;;;;;;;;5043075;28;20168;-74
2023/05/14 11:20:15;;;;;;;3.53;1.97;;;;;;;;;;5055674;28;20184;-74
2023/05/14 11:23:23;;;;;;;2.40;2.10;;;;;;;;;;5055591;28;20216;-74
2023/05/14 11:26:27;;;;;;;2.27;2.07;;;;;;;;;;5020273;28;20175;-74
2023/05/14 11:29:31;;;;;;;4.23;1.90;;;;;;;;;;5055493;28;20184;-74
2023/05/14 11:32:36;;;;;;;2.10;1.80;;;;;;;;;;5055231;28;20262;-74
2023/05/14 11:35:44;;;;;;;1.87;1.73;;;;;;;;;;5055560;28;20210;-73
2023/05/14 11:38:50;;;;;;;2.20;2.00;;;;;;;;;;5055005;28;20178;-73
2023/05/14 11:41:54;;;;;;;2.07;1.87;;;;;;;;;;5055174;28;20226;-73
2023/05/14 11:44:58;;;;;;;2.33;1.53;;;;;;;;;;5055128;28;20184;-73
2023/05/14 11:48:10;;;;;;;1.80;1.60;;;;;;;;;;5042845;28;20175;-73
2023/05/14 11:51:14;;;;;;;3.93;1.73;;;;;;;;;;5054945;28;20517;-73
2023/05/14 11:54:18;;;;;;;3.03;1.73;;;;;;;;;;5054619;28;20675;-73
2023/05/14 11:57:23;;;;;;;2.20;2.00;;;;;;;;;;5059035;23;20234;-70
2023/05/14 12:00:26;;;;;;;1.70;1.60;;;;;;;;;;5074223;28;20180;-70
2023/05/14 12:03:30;;;;;;;2.50;2.00;;;;;;;;;;5030991;28;20212;-69
2023/05/14 12:06:35;;;;;;;3.63;1.70;;;;;;;;;;5041723;28;20172;-70
2023/05/14 12:09:50;;;;;;;3.13;2.03;;;;;;;;;;5041860;28;20642;-70
2023/05/14 12:12:54;;;;;;;2.10;1.90;;;;;;;;;;5041748;28;20221;-69
2023/05/14 12:16:01;;;;;;;5.57;2.07;;;;;;;;;;5053548;28;20219;-69
2023/05/14 12:19:07;;;;;;;2.30;2.00;;;;;;;;;;5053629;28;20180;-70
2023/05/14 12:22:20;;;;;;;2.63;2.20;;;;;;;;;;5053645;28;20211;-70
2023/05/14 12:25:25;;;;;;;2.63;2.37;;;;;;;;;;5041703;28;20185;-70
2023/05/14 12:28:29;;;;;;;2.67;2.17;;;;;;;;;;5053449;28;20523;-69
2023/05/14 12:31:35;;;;;;;2.97;2.47;;;;;;;;;;5053078;28;20211;-69
2023/05/14 12:34:39;;;;;;;3.53;2.70;;;;;;;;;;5053874;28;20188;-69
2023/05/14 12:37:43;;;;;;;3.83;2.70;;;;;;;;;;5053388;28;20169;-70
2023/05/14 12:40:47;;;;;;;3.83;2.50;;;;;;;;;;5053554;28;20188;-70
2023/05/14 12:43:51;;;;;;;2.63;2.30;;;;;;;;;;5053491;28;20175;-69
2023/05/14 12:46:56;;;;;;;3.80;2.27;;;;;;;;;;5053196;28;20508;-70
2023/05/14 12:50:00;;;;;;;2.60;2.40;;;;;;;;;;5053429;28;20174;-70
2023/05/14 12:53:04;;;;;;;3.73;2.60;;;;;;;;;;5053321;28;20212;-70
2023/05/14 12:56:09;;;;;;;2.60;2.40;;;;;;;;;;5029585;28;20230;-70
2023/05/14 12:59:13;;;;;;;2.93;2.50;;;;;;;;;;5053046;28;20674;-70
2023/05/14 13:02:17;;;;;;;3.00;2.50;;;;;;;;;;5053317;28;20220;-70
2023/05/14 13:05:22;;;;;;;3.83;2.23;;;;;;;;;;5053279;28;20187;-71
2023/05/14 13:08:26;;;;;;;2.33;2.10;;;;;;;;;;5040734;28;20186;-70
2023/05/14 13:11:31;;;;;;;2.40;2.20;;;;;;;;;;5040593;28;20219;-70
2023/05/14 13:14:35;;;;;;;3.40;1.90;;;;;;;;;;5040807;28;20203;-71
2023/05/14 13:17:40;;;;;;;1.80;1.70;;;;;;;;;;5040468;28;20229;-71
2023/05/14 13:20:46;;;;;;;3.58;2.25;;;;;;;;;;5053262;28;20182;-70
2023/05/14 13:23:50;;;;;;;4.05;1.83;;;;;;;;;;5041299;28;20507;-70
2023/05/14 13:26:54;;;;;;;2.50;1.80;;;;;;;;;;5041005;28;20192;-70
2023/05/14 13:29:58;;;;;;;2.35;2.15;;;;;;;;;;5029499;28;20198;-70
2023/05/14 13:33:02;;;;;;;1.83;1.65;;;;;;;;;;5052951;28;20218;-71
2023/05/14 13:36:07;;;;;;;2.63;1.50;;;;;;;;;;5052763;28;20203;-70
2023/05/14 13:39:11;;;;;;;2.63;1.75;;;;;;;;;;5040609;28;20179;-71
2023/05/14 13:42:15;;;;;;;3.22;2.10;;;;;;;;;;5055681;28;20213;-71
2023/05/14 13:45:19;;;;;;;1.85;1.75;;;;;;;;;;5056513;28;20189;-71
2023/05/14 13:48:24;;;;;;;2.75;1.85;;;;;;;;;;5044225;28;20535;-70
2023/05/14 13:51:28;;;;;;;2.50;1.70;;;;;;;;;;5056572;28;20532;-70
2023/05/14 13:54:32;;;;;;;1.50;1.40;;;;;;;;;;5044334;28;20247;-70
2023/05/14 13:57:38;;;;;;;2.88;1.60;;;;;;;;;;5043943;28;20220;-70
2023/05/14 14:00:42;;;;;;;1.80;1.65;;;;;;;;;;5056566;28;20178;-71
2023/05/14 14:03:47;;;;;;;1.75;1.30;;;;;;;;;;5056511;28;20181;-71
2023/05/14 14:06:51;;;;;;;1.67;1.20;;;;;;;;;;5044723;28;20176;-70
2023/05/14 14:09:55;;;;;;;1.85;1.05;;;;;;;;;;5044102;28;20638;-72
2023/05/14 14:12:59;;;;;;;2.42;1.20;;;;;;;;;;5044032;28;20226;-71
2023/05/14 14:16:05;;;;;;;1.40;1.30;;;;;;;;;;5055863;28;20221;-71
2023/05/14 14:19:09;;;;;;;1.50;1.33;;;;;;;;;;5056195;28;20186;-71
2023/05/14 14:22:16;;;;;;;1.38;1.27;;;;;;;;;;5043557;28;20214;-71
2023/05/14 14:25:19;;;;;;;3.45;2.05;;;;;;;;;;5044022;28;20185;-72
2023/05/14 14:28:24;;;;;;;3.85;1.42;;;;;;;;;;5043550;28;20197;-71
2023/05/14 14:31:28;;;;;;;3.58;1.67;;;;;;;;;;5055613;28;20188;-71
2023/05/14 14:34:32;;;;;;;2.53;1.40;;;;;;;;;;5055615;28;20177;-72
2023/05/14 14:37:36;;;;;;;2.00;1.30;;;;;;;;;;5043278;28;20206;-72
2023/05/14 14:40:41;;;;;;;2.73;1.50;;;;;;;;;;5043560;28;20637;-71
2023/05/14 14:43:44;;;;;;;1.53;1.40;;;;;;;;;;5055771;28;20183;-71
2023/05/14 14:46:48;;;;;;;2.07;1.47;;;;;;;;;;5055625;28;20195;-71
2023/05/14 14:49:53;;;;;;;3.70;1.83;;;;;;;;;;5043314;28;20196;-71
2023/05/14 14:52:57;;;;;;;2.60;1.57;;;;;;;;;;5054219;28;20216;-71
2023/05/14 14:56:01;;;;;;;2.53;1.87;;;;;;;;;;5055538;28;20548;-72
2023/05/14 14:59:06;;;;;;;2.27;1.63;;;;;;;;;;5055171;28;20192;-71
2023/05/14 15:02:09;;;;;;;2.40;2.00;;;;;;;;;;5055181;28;20220;-71
2023/05/14 15:05:14;;;;;;;1.60;1.50;;;;;;;;;;5055009;28;20184;-71
2023/05/14 15:08:19;;;;;;;1.87;1.70;;;;;;;;;;5055294;28;20175;-71
2023/05/14 15:11:23;;;;;;;1.70;1.57;;;;;;;;;;5055101;28;20194;-71
2023/05/14 15:14:27;;;;;;;5.63;2.10;;;;;;;;;;5054850;28;20197;-71
2023/05/14 15:17:31;;;;;;;3.53;1.70;;;;;;;;;;5055271;28;20205;-71
2023/05/14 15:20:36;;;;;;;2.60;1.60;;;;;;;;;;5042809;28;20180;-71
2023/05/14 15:23:40;;;;;;;4.77;1.60;;;;;;;;;;5042743;28;20184;-71
2023/05/14 15:26:44;;;;;;;2.37;1.70;;;;;;;;;;5054874;28;20176;-70
2023/05/14 15:29:48;;;;;;;1.80;1.70;;;;;;;;;;5055363;28;20176;-71
2023/05/14 15:32:52;;;;;;;1.73;1.63;;;;;;;;;;5054536;28;20211;-71
2023/05/14 15:35:57;;;;;;;2.57;1.80;;;;;;;;;;5042474;28;20184;-71
2023/05/14 15:39:01;;;;;;;2.33;1.50;;;;;;;;;;5054942;28;20168;-71
2023/05/14 15:42:05;;;;;;;3.37;1.60;;;;;;;;;;5030661;28;20219;-70
2023/05/14 15:45:11;;;;;;;2.83;1.90;;;;;;;;;;5054271;28;20172;-71
2023/05/14 15:48:15;;;;;;;3.60;1.90;;;;;;;;;;5042831;28;20168;-70
2023/05/14 15:51:20;;;;;;;3.63;1.90;;;;;;;;;;5054106;28;20176;-70
2023/05/14 15:54:25;;;;;;;1.60;1.43;;;;;;;;;;5042166;28;20204;-71
2023/05/14 15:57:30;;;;;;;3.20;1.60;;;;;;;;;;5041897;28;20219;-70
2023/05/14 16:00:34;;;;;;;1.40;1.30;;;;;;;;;;5054522;28;20192;-70
2023/05/14 16:03:38;;;;;;;1.47;1.37;;;;;;;;;;5053960;28;20172;-71
2023/05/14 16:06:44;;;;;;;2.67;1.27;;;;;;;;;;5054248;28;20177;-71
2023/05/14 16:09:48;;;;;;;1.70;1.30;;;;;;;;;;5054080;28;20516;-70
2023/05/14 16:12:52;;;;;;;1.73;1.40;;;;;;;;;;5041506;28;20555;-70
2023/05/14 16:15:58;;;;;;;4.17;1.40;;;;;;;;;;5030357;28;20516;-71
2023/05/14 16:19:02;;;;;;;1.97;1.17;;;;;;;;;;5054160;28;20172;-71
2023/05/14 16:22:06;;;;;;;1.03;1.00;;;;;;;;;;5053760;28;20224;-71
2023/05/14 16:25:11;;;;;;;1.20;1.10;;;;;;;;;;5041540;28;20623;-70
2023/05/14 16:28:15;;;;;;;1.27;1.17;;;;;;;;;;5053805;28;20180;-70
2023/05/14 16:31:18;;;;;;;1.30;1.20;;;;;;;;;;5030030;28;20180;-70
2023/05/14 16:34:22;;;;;;;1.80;1.10;;;;;;;;;;5053942;28;20184;-70
2023/05/14 16:37:27;;;;;;;1.53;1.40;;;;;;;;;;5041219;28;20207;-71
2023/05/14 16:40:31;;;;;;;1.47;1.37;;;;;;;;;;5053602;28;20184;-71
2023/05/14 16:43:35;;;;;;;3.43;2.13;;;;;;;;;;5041123;28;20176;-70
2023/05/14 16:46:39;;;;;;;2.53;1.77;;;;;;;;;;5041257;28;20180;-71
2023/05/14 16:49:43;;;;;;;1.27;1.13;;;;;;;;;;5053764;28;20184;-71
2023/05/14 16:52:48;;;;;;;5.13;1.30;;;;;;;;;;5041030;28;20559;-71
2023/05/14 16:55:52;;;;;;;2.17;1.13;;;;;;;;;;5041072;28;20200;-71
2023/05/14 16:58:56;;;;;;;1.87;1.43;;;;;;;;;;5053309;28;20168;-70
2023/05/14 17:02:00;;;;;;;3.77;1.33;;;;;;;;;;5040932;28;20219;-71
2023/05/14 17:05:05;;;;;;;2.70;1.87;;;;;;;;;;5053026;28;20187;-71
2023/05/14 17:08:09;;;;;;;2.00;1.50;;;;;;;;;;5052906;28;20196;-71
2023/05/14 17:11:13;;;;;;;1.87;1.30;;;;;;;;;;5041118;28;20654;-71
2023/05/14 17:14:17;;;;;;;2.47;1.20;;;;;;;;;;5053161;28;20176;-71
2023/05/14 17:17:21;;;;;;;2.07;1.40;;;;;;;;;;5056088;28;20220;-71
2023/05/14 17:20:26;;;;;;;2.20;1.30;;;;;;;;;;5033436;28;20539;-71
2023/05/14 17:23:30;;;;;;;2.57;2.00;;;;;;;;;;5057036;28;20551;-71
2023/05/14 17:26:36;;;;;;;3.10;1.60;;;;;;;;;;5045010;28;20192;-71
2023/05/14 17:29:40;;;;;;;1.40;1.27;;;;;;;;;;5056823;28;20196;-71
2023/05/14 17:32:44;;;;;;;1.83;1.53;;;;;;;;;;5044605;28;20215;-71
2023/05/14 17:35:48;;;;;;;1.93;1.60;;;;;;;;;;5057595;28;20176;-71
2023/05/14 17:38:52;;;;;;;3.40;1.80;;;;;;;;;;5057175;28;20690;-71
2023/05/14 17:41:57;;;;;;;2.13;1.80;;;;;;;;;;5056522;28;20215;-71
2023/05/14 17:45:01;;;;;;;3.23;1.73;;;;;;;;;;5056855;28;20199;-71
2023/05/14 17:48:05;;;;;;;3.03;1.67;;;;;;;;;;5056814;28;20177;-71
2023/05/14 17:51:09;;;;;;;1.93;1.57;;;;;;;;;;5056674;28;20172;-71
2023/05/14 17:54:13;;;;;;;1.60;1.43;;;;;;;;;;5044164;28;20176;-71
2023/05/14 17:57:17;;;;;;;1.87;1.40;;;;;;;;;;5080798;22;20243;-73
2023/05/14 18:00:21;;;;;;;1.90;1.67;;;;;;;;;;5053289;28;20179;-73
2023/05/14 18:03:26;;;;;;;1.40;1.17;;;;;;;;;;5058159;28;20717;-73
2023/05/14 18:06:30;;;;;;;1.53;1.27;;;;;;;;;;5056380;28;20523;-73
2023/05/14 18:09:34;;;;;;;3.43;2.47;;;;;;;;;;5044332;28;20176;-73
2023/05/14 18:12:38;;;;;;;4.47;3.10;;;;;;;;;;5056072;28;20215;-73
2023/05/14 18:15:42;;;;;;;1.97;1.60;;;;;;;;;;5056319;28;20184;-73
2023/05/14 18:18:46;;;;;;;1.60;1.50;;;;;;;;;;5032820;28;20212;-73
2023/05/14 18:21:54;;;;;;;1.60;1.50;;;;;;;;;;5055939;28;20223;-73
2023/05/14 18:24:58;;;;;;;1.90;1.70;;;;;;;;;;5056275;28;20176;-73